Time;durP1;ratioP1;P1;durP2;ratioP2;P2;SDS_P1;SDS_P2;PMS_P1;PMS_P2;Temp;Humidity;BMP_temperature;BMP_pressure;BME280_temperature;BME280_humidity;BME280_pressure;Samples;Min_cycle;Max_cycle;Signal;HPM_P1;HPM_P2
2023/04/30 00:00:00;;;;;;;15.75;10.95;;;;;;;14.76;60.04;100799.88;10342883;28;20049;-60
2023/04/30 00:05:01;;;;;;;17.48;11.35;;;;;;;14.64;60.13;100793.31;10347670;28;20150;-61
2023/04/30 00:10:04;;;;;;;16.63;11.77;;;;;;;14.61;60.24;100804.50;10345002;28;20109;-61
2023/04/30 00:15:06;;;;;;;19.27;12.48;;;;;;;14.53;60.18;100801.88;10351836;28;20117;-60
2023/04/30 00:20:07;;;;;;;18.77;12.82;;;;;;;14.48;60.19;100805.19;10352920;28;20069;-60
2023/04/30 00:25:09;;;;;;;17.08;11.80;;;;;;;14.38;60.28;100812.75;10352867;28;20046;-59
2023/04/30 00:30:11;;;;;;;17.23;12.77;;;;;;;14.22;60.52;100809.22;10354005;28;20052;-60
2023/04/30 00:35:12;;;;;;;18.15;13.02;;;;;;;14.06;60.73;100806.75;10352345;28;20060;-61
2023/04/30 00:40:13;;;;;;;21.30;13.63;;;;;;;13.91;60.92;100805.91;10357863;28;20053;-59
2023/04/30 00:45:16;;;;;;;20.33;14.25;;;;;;;13.79;60.98;100808.22;10362017;28;20045;-61
2023/04/30 00:50:18;;;;;;;23.42;15.32;;;;;;;13.63;61.18;100812.78;10357451;28;20116;-59
2023/04/30 00:55:20;;;;;;;21.67;15.50;;;;;;;13.49;61.30;100811.72;10369770;28;20065;-60
2023/04/30 01:00:21;;;;;;;26.27;14.95;;;;;;;13.36;61.36;100821.47;10355643;28;20042;-58
2023/04/30 01:05:23;;;;;;;20.88;14.25;;;;;;;13.22;61.24;100818.53;10354082;28;20042;-60
2023/04/30 01:10:45;;;;;;;19.15;13.63;;;;;;;13.04;61.45;100821.53;10362547;28;20058;-60
2023/04/30 01:15:55;;;;;;;25.10;16.15;;;;;;;12.84;61.85;100823.06;10347172;28;20704;-60
2023/04/30 01:21:02;;;;;;;22.65;16.60;;;;;;;12.73;62.23;100823.44;10365683;28;20039;-61
2023/04/30 01:26:40;;;;;;;21.98;14.75;;;;;;;12.57;61.85;100833.31;10354001;28;20076;-60
2023/04/30 01:31:45;;;;;;;28.67;16.77;;;;;;;12.41;62.42;100831.53;10358350;28;20050;-60
2023/04/30 01:37:07;;;;;;;21.83;14.88;;;;;;;12.27;62.64;100830.44;10364664;28;20346;-61
2023/04/30 01:42:19;;;;;;;23.08;14.40;;;;;;;12.16;63.17;100824.59;10358505;28;20042;-61
2023/04/30 01:47:29;;;;;;;23.20;14.10;;;;;;;12.05;63.21;100834.72;10357551;28;20049;-61
2023/04/30 01:52:49;;;;;;;27.60;16.02;;;;;;;11.90;63.70;100837.28;10366080;28;20034;-62
2023/04/30 01:58:04;;;;;;;24.90;16.27;;;;;;;11.78;63.33;100838.66;10360219;28;20403;-60
2023/04/30 02:03:06;;;;;;;25.35;16.50;;;;;;;11.73;63.55;100846.41;10359809;28;20043;-61
2023/04/30 02:08:07;;;;;;;26.65;16.85;;;;;;;11.67;63.61;100845.25;10357264;28;20572;-60
2023/04/30 02:13:09;;;;;;;25.10;16.80;;;;;;;11.60;63.89;100846.09;10355816;28;20045;-60
2023/04/30 02:18:10;;;;;;;23.15;15.50;;;;;;;11.53;63.82;100843.22;10364869;28;20042;-59
2023/04/30 02:23:12;;;;;;;25.10;17.00;;;;;;;11.51;63.88;100853.31;10361763;28;20047;-60
2023/04/30 02:28:13;;;;;;;28.85;17.42;;;;;;;11.45;63.98;100851.31;10365153;28;20038;-62
2023/04/30 02:33:15;;;;;;;28.65;17.13;;;;;;;11.41;64.13;100856.19;10358434;28;20048;-61
2023/04/30 02:38:16;;;;;;;29.10;17.30;;;;;;;11.44;64.61;100855.88;10359724;28;20042;-62
2023/04/30 02:43:17;;;;;;;24.42;16.15;;;;;;;11.47;64.61;100846.59;10353039;28;20038;-61
2023/04/30 02:48:19;;;;;;;27.45;16.92;;;;;;;11.48;64.43;100849.13;10365733;28;20053;-60
2023/04/30 02:53:20;;;;;;;28.85;17.98;;;;;;;11.51;64.57;100842.56;10358881;28;20042;-61
2023/04/30 02:58:21;;;;;;;30.08;18.33;;;;;;;11.55;65.40;100834.97;10364062;28;20042;-60
2023/04/30 03:03:23;;;;;;;31.10;17.45;;;;;;;11.58;65.63;100834.66;10361293;28;20049;-61
2023/04/30 03:08:25;;;;;;;27.08;18.08;;;;;;;11.66;65.71;100830.09;10360131;28;20114;-61
2023/04/30 03:13:27;;;;;;;28.58;18.40;;;;;;;11.82;65.47;100831.91;10359214;28;20034;-61
2023/04/30 03:18:28;;;;;;;27.55;18.10;;;;;;;11.93;65.29;100840.66;10358229;28;20456;-60
2023/04/30 03:23:29;;;;;;;26.27;17.25;;;;;;;12.06;65.39;100840.94;10346776;28;20049;-61
2023/04/30 03:28:31;;;;;;;29.13;17.05;;;;;;;12.13;65.04;100844.66;10357841;28;20042;-61
2023/04/30 03:33:33;;;;;;;29.65;17.58;;;;;;;12.18;65.29;100844.13;10351991;28;20046;-59
2023/04/30 03:38:34;;;;;;;27.70;17.55;;;;;;;12.26;65.71;100844.94;10365598;28;20042;-61
2023/04/30 03:43:36;;;;;;;23.30;16.52;;;;;;;12.30;65.46;100840.88;10358900;28;20104;-61
2023/04/30 03:48:38;;;;;;;29.23;17.95;;;;;;;12.32;65.57;100839.84;10356114;28;20108;-62
2023/04/30 03:53:39;;;;;;;29.67;16.20;;;;;;;12.39;65.11;100838.97;10356499;28;20103;-60
2023/04/30 03:58:40;;;;;;;26.52;16.33;;;;;;;12.43;64.82;100837.59;10362513;28;20111;-60
2023/04/30 04:03:42;;;;;;;24.33;16.50;;;;;;;12.43;64.95;100834.91;10340090;28;20047;-62
2023/04/30 04:08:43;;;;;;;26.67;16.90;;;;;;;12.43;64.79;100834.91;10321010;28;20057;-61
2023/04/30 04:13:45;;;;;;;27.08;17.23;;;;;;;12.36;64.74;100841.16;10321553;28;20084;-62
2023/04/30 04:18:46;;;;;;;23.30;16.08;;;;;;;12.26;64.72;100836.84;10326910;28;20510;-62
2023/04/30 04:23:48;;;;;;;24.83;15.50;;;;;;;12.25;64.36;100845.09;10314641;28;20421;-61
2023/04/30 04:28:49;;;;;;;25.13;17.40;;;;;;;12.28;63.82;100850.13;10320018;28;20141;-62
2023/04/30 04:33:56;;;;;;;26.02;16.50;;;;;;;12.23;63.85;100861.44;10320577;28;20279;-62
2023/04/30 04:39:01;;;;;;;21.88;15.55;;;;;;;12.22;64.15;100870.56;10322758;28;20108;-62
2023/04/30 04:44:03;;;;;;;22.63;14.63;;;;;;;12.12;63.74;100869.06;10312885;28;20049;-62
2023/04/30 04:49:05;;;;;;;24.73;15.50;;;;;;;12.06;64.19;100870.59;10324979;28;20042;-62
2023/04/30 04:54:06;;;;;;;23.33;16.10;;;;;;;12.03;64.26;100876.34;10312795;28;20712;-62
2023/04/30 04:59:08;;;;;;;23.40;15.18;;;;;;;11.89;64.38;100875.19;10311757;28;20078;-62
2023/04/30 05:04:09;;;;;;;24.63;15.40;;;;;;;11.85;64.33;100881.91;10317531;28;20046;-62
2023/04/30 05:09:10;;;;;;;28.58;15.95;;;;;;;11.87;64.08;100890.66;10309093;28;20181;-62
2023/04/30 05:14:12;;;;;;;24.63;15.52;;;;;;;11.86;64.38;100903.28;10328291;28;20130;-62
2023/04/30 05:19:13;;;;;;;25.77;16.23;;;;;;;11.88;64.39;100893.16;10322211;28;20092;-62
2023/04/30 05:24:15;;;;;;;22.75;15.35;;;;;;;11.91;64.52;100894.72;10305573;28;20464;-62
2023/04/30 05:29:16;;;;;;;26.35;15.00;;;;;;;12.01;64.10;100903.47;10327760;28;20157;-62
2023/04/30 05:34:17;;;;;;;22.08;13.63;;;;;;;12.16;63.96;100894.66;10308261;28;20061;-61
2023/04/30 05:39:19;;;;;;;22.30;14.48;;;;;;;12.25;64.01;100890.94;10315714;28;20130;-61
2023/04/30 05:44:20;;;;;;;26.67;13.48;;;;;;;12.37;64.10;100899.47;10322432;28;20157;-61
2023/04/30 05:49:22;;;;;;;21.23;13.65;;;;;;;12.50;63.94;100889.00;10316861;28;20129;-61
2023/04/30 05:54:23;;;;;;;18.63;12.45;;;;;;;12.56;63.68;100898.22;10322765;28;20038;-62
2023/04/30 05:59:25;;;;;;;16.73;10.77;;;;;;;12.62;63.78;100900.22;10321792;28;20101;-62
2023/04/30 06:04:26;;;;;;;18.33;11.20;;;;;;;12.67;63.26;100906.75;10320236;28;20134;-62
2023/04/30 06:09:27;;;;;;;15.20;10.20;;;;;;;12.68;63.11;100907.63;10326976;28;20126;-62
2023/04/30 06:14:29;;;;;;;12.88;8.95;;;;;;;12.69;63.00;100899.31;10329274;28;20138;-61
2023/04/30 06:19:30;;;;;;;13.98;9.18;;;;;;;12.77;62.99;100897.63;10327138;28;20046;-61
2023/04/30 06:24:32;;;;;;;14.18;8.38;;;;;;;12.82;62.19;100896.06;10330550;28;20908;-62
2023/04/30 06:29:33;;;;;;;16.73;9.25;;;;;;;12.96;61.69;100902.56;10329852;28;20132;-61
2023/04/30 06:34:35;;;;;;;13.23;8.90;;;;;;;13.14;61.61;100896.88;10321894;28;20069;-61
2023/04/30 06:39:37;;;;;;;12.18;8.63;;;;;;;13.32;60.96;100893.06;10332535;28;20065;-61
2023/04/30 06:44:38;;;;;;;12.75;7.60;;;;;;;13.41;60.84;100897.41;10321299;28;20577;-61
2023/04/30 06:49:39;;;;;;;15.13;8.50;;;;;;;13.60;60.29;100904.97;10323138;28;20085;-62
2023/04/30 06:54:42;;;;;;;14.98;7.50;;;;;;;13.63;60.48;100904.63;10324093;28;20096;-61
2023/04/30 06:59:44;;;;;;;13.70;8.15;;;;;;;13.73;60.05;100903.53;10319190;28;20046;-61
2023/04/30 07:04:45;;;;;;;12.05;7.40;;;;;;;13.77;59.82;100905.69;10330919;28;20104;-61
2023/04/30 07:09:47;;;;;;;10.25;6.55;;;;;;;14.01;59.33;100901.91;10322797;28;20464;-62
2023/04/30 07:14:52;;;;;;;12.68;6.70;;;;;;;14.24;58.72;100885.59;10330968;28;20050;-62
2023/04/30 07:19:53;;;;;;;10.50;6.88;;;;;;;14.38;58.16;100883.06;10323505;28;20050;-62
2023/04/30 07:24:55;;;;;;;11.75;6.30;;;;;;;14.50;58.11;100884.28;10325796;28;20045;-62
2023/04/30 07:29:57;;;;;;;10.30;6.57;;;;;;;14.67;57.59;100880.38;10323340;28;20485;-62
2023/04/30 07:34:58;;;;;;;9.63;6.38;;;;;;;14.64;57.60;100880.72;10321840;28;20116;-63
2023/04/30 07:39:59;;;;;;;12.32;7.20;;;;;;;14.85;57.32;100885.34;10328296;28;20101;-63
2023/04/30 07:45:02;;;;;;;7.40;4.80;;;;;;;15.04;56.59;100881.16;10330556;28;20088;-62
2023/04/30 07:50:04;;;;;;;9.90;6.20;;;;;;;15.06;56.56;100886.41;10320095;28;20145;-62
2023/04/30 07:55:06;;;;;;;9.80;6.22;;;;;;;15.20;56.25;100884.66;10323866;28;20105;-62
2023/04/30 08:00:08;;;;;;;8.68;5.88;;;;;;;15.30;55.81;100893.31;10320143;28;20131;-62
2023/04/30 08:05:10;;;;;;;8.55;6.68;;;;;;;15.45;55.82;100887.81;10331621;28;20046;-62
2023/04/30 08:10:11;;;;;;;6.93;5.05;;;;;;;15.57;55.62;100886.25;10326537;28;20104;-62
2023/04/30 08:15:13;;;;;;;6.03;5.15;;;;;;;15.72;55.38;100893.44;10323724;28;20138;-62
2023/04/30 08:20:14;;;;;;;9.25;5.90;;;;;;;15.92;55.22;100883.66;10316029;28;20093;-63
2023/04/30 08:25:16;;;;;;;15.13;5.70;;;;;;;15.97;54.88;100881.16;10323953;28;20120;-64
2023/04/30 08:30:17;;;;;;;6.53;4.15;;;;;;;16.09;54.17;100878.72;10323727;28;20050;-60
2023/04/30 08:35:20;;;;;;;9.23;4.50;;;;;;;16.33;54.06;100874.72;10332182;28;20049;-61
2023/04/30 08:40:22;;;;;;;6.38;4.25;;;;;;;16.43;53.61;100880.59;10330983;28;20069;-58
2023/04/30 08:45:44;;;;;;;5.72;3.67;;;;;;;16.58;53.24;100874.19;10343865;28;20070;-59
2023/04/30 08:50:45;;;;;;;4.97;3.00;;;;;;;16.84;52.29;100871.59;10343167;28;20145;-59
2023/04/30 08:55:47;;;;;;;5.28;3.05;;;;;;;16.86;52.45;100874.09;10331504;28;20039;-58
2023/04/30 09:00:48;;;;;;;3.05;2.75;;;;;;;16.93;51.64;100866.81;10329534;28;20050;-58
2023/04/30 09:05:50;;;;;;;5.68;2.65;;;;;;;17.09;51.56;100864.75;10340583;28;20077;-59
2023/04/30 09:10:51;;;;;;;2.63;2.10;;;;;;;17.29;51.04;100865.63;10335419;28;20050;-59
2023/04/30 09:15:52;;;;;;;4.38;2.00;;;;;;;17.43;50.41;100866.47;10333112;28;20080;-59
2023/04/30 09:21:01;;;;;;;2.90;1.77;;;;;;;17.51;50.26;100870.84;10330534;28;20066;-59
2023/04/30 09:26:03;;;;;;;2.35;1.70;;;;;;;17.59;49.50;100868.75;10328324;28;20100;-60
2023/04/30 09:31:18;;;;;;;3.08;1.80;;;;;;;17.75;49.13;100863.94;10331938;28;20065;-59
2023/04/30 09:36:20;;;;;;;5.53;1.50;;;;;;;17.87;48.54;100854.16;10331684;28;20101;-59
2023/04/30 09:41:26;;;;;;;3.88;1.25;;;;;;;18.11;47.78;100855.34;10315518;28;20046;-59
2023/04/30 09:46:32;;;;;;;3.83;1.60;;;;;;;18.34;47.18;100846.66;10333807;28;20053;-59
2023/04/30 09:51:34;;;;;;;2.70;0.97;;;;;;;18.39;47.17;100848.75;10341455;28;20050;-59
2023/04/30 09:56:38;;;;;;;2.38;1.05;;;;;;;18.39;46.35;100838.69;10339560;28;20434;-59
2023/04/30 10:01:39;;;;;;;2.17;0.90;;;;;;;18.64;46.09;100832.50;10335488;28;20105;-59
2023/04/30 10:06:42;;;;;;;1.95;0.70;;;;;;;18.76;45.57;100832.66;10335807;28;20433;-59
2023/04/30 10:11:45;;;;;;;1.30;0.60;;;;;;;19.11;44.30;100821.34;10336943;28;20097;-59
2023/04/30 10:16:56;;;;;;;1.25;0.88;;;;;;;19.14;44.44;100820.94;10340170;28;20038;-58
2023/04/30 10:21:58;;;;;;;1.67;0.88;;;;;;;19.45;43.90;100811.88;10323588;28;20097;-59
2023/04/30 10:27:00;;;;;;;1.77;0.70;;;;;;;19.58;43.86;100800.81;10339676;28;20791;-59
2023/04/30 10:32:03;;;;;;;1.33;0.75;;;;;;;19.77;43.24;100795.44;10337993;28;20046;-59
2023/04/30 10:37:17;;;;;;;0.95;0.50;;;;;;;20.08;42.40;100780.78;10320052;28;20122;-58
2023/04/30 10:42:19;;;;;;;3.63;0.70;;;;;;;20.40;41.73;100786.91;10323866;28;20173;-59
2023/04/30 10:47:27;;;;;;;0.70;0.40;;;;;;;20.54;41.46;100779.38;10346198;28;20050;-59
2023/04/30 10:52:29;;;;;;;1.05;0.35;;;;;;;20.80;40.71;100769.97;10336765;28;20209;-59
2023/04/30 10:57:31;;;;;;;4.72;0.40;;;;;;;21.08;40.20;100754.81;10342693;28;20073;-59
2023/04/30 11:02:43;;;;;;;1.00;0.30;;;;;;;21.28;39.52;100764.59;10341363;28;20046;-59
2023/04/30 11:07:57;;;;;;;0.70;0.32;;;;;;;21.46;39.00;100758.22;10342782;28;20054;-60
2023/04/30 11:13:03;;;;;;;1.98;0.30;;;;;;;21.52;38.71;100743.56;10349866;28;20026;-60
2023/04/30 11:18:06;;;;;;;0.50;0.30;;;;;;;21.74;38.31;100739.16;10359037;28;20078;-58
2023/04/30 11:23:13;;;;;;;1.23;0.10;;;;;;;21.99;37.60;100743.50;10338109;28;20498;-58
2023/04/30 11:28:26;;;;;;;;;;;;;;;22.07;38.47;100737.63;10324111;28;20042;-59
2023/04/30 11:33:32;;;;;;;0.25;0.10;;;;;;;22.10;37.28;100728.13;10333369;28;19925;-58
2023/04/30 11:38:35;;;;;;;0.00;0.00;;;;;;;22.18;35.62;100722.25;10340691;28;20042;-58
2023/04/30 11:43:36;;;;;;;0.00;0.00;;;;;;;22.37;34.60;100712.81;10335381;28;20393;-58
2023/04/30 11:48:43;;;;;;;0.00;0.00;;;;;;;22.77;34.00;100708.28;10325482;28;20082;-59
2023/04/30 11:53:49;;;;;;;0.10;0.00;;;;;;;23.09;33.53;100708.56;10318709;28;20066;-59
2023/04/30 11:58:52;;;;;;;1.90;0.60;;;;;;;23.24;33.10;100707.13;10322704;28;20057;-64
2023/04/30 12:03:55;;;;;;;0.60;0.00;;;;;;;23.55;32.28;100706.47;10302118;28;20507;-65
2023/04/30 12:09:03;;;;;;;0.10;0.00;;;;;;;23.67;32.04;100706.34;10320116;28;20562;-63
2023/04/30 12:14:09;;;;;;;0.20;0.00;;;;;;;23.79;31.15;100689.78;10309190;28;20569;-62
2023/04/30 12:19:11;;;;;;;0.03;0.00;;;;;;;24.09;30.86;100678.34;10318887;28;20078;-62
2023/04/30 12:24:15;;;;;;;0.10;0.10;;;;;;;24.08;30.81;100682.16;10321988;28;20365;-63
2023/04/30 12:29:17;;;;;;;0.00;0.00;;;;;;;24.32;30.17;100684.63;10317195;28;20047;-62
2023/04/30 12:34:19;;;;;;;0.10;0.00;;;;;;;24.41;29.87;100674.81;10314451;28;20042;-61
2023/04/30 12:39:20;;;;;;;0.15;0.00;;;;;;;24.63;29.16;100683.03;10320101;28;20090;-63
2023/04/30 12:44:24;;;;;;;1.35;0.05;;;;;;;24.80;29.41;100676.56;10327817;28;20088;-60
2023/04/30 12:49:32;;;;;;;0.10;0.00;;;;;;;25.08;29.05;100667.13;10320856;28;20053;-60
2023/04/30 12:54:35;;;;;;;1.45;0.20;;;;;;;25.17;29.21;100667.47;10324859;28;20042;-61
2023/04/30 12:59:39;;;;;;;0.08;0.08;;;;;;;25.51;28.53;100649.53;10319656;28;20081;-62
2023/04/30 13:04:41;;;;;;;0.47;0.30;;;;;;;25.81;28.13;100652.66;10325241;28;20058;-61
2023/04/30 13:09:42;;;;;;;0.25;0.10;;;;;;;26.15;28.10;100642.03;10316776;28;20129;-61
2023/04/30 13:14:44;;;;;;;0.25;0.17;;;;;;;26.17;27.98;100639.84;10329301;28;20152;-61
2023/04/30 13:19:45;;;;;;;0.10;0.00;;;;;;;26.23;28.01;100627.72;10328843;28;20124;-60
2023/04/30 13:24:47;;;;;;;0.15;0.08;;;;;;;26.16;27.82;100618.88;10327769;28;20047;-59
2023/04/30 13:29:48;;;;;;;0.52;0.10;;;;;;;26.15;27.69;100614.47;10318249;28;20124;-61
2023/04/30 13:34:53;;;;;;;0.10;0.10;;;;;;;26.48;27.53;100615.03;10322772;28;20100;-60
2023/04/30 13:39:55;;;;;;;0.08;0.08;;;;;;;26.68;27.03;100601.28;10293462;28;20852;-62
2023/04/30 13:44:57;;;;;;;1.10;0.10;;;;;;;26.63;27.04;100604.03;10322829;28;20069;-60
2023/04/30 13:49:58;;;;;;;0.30;0.10;;;;;;;26.89;26.87;100593.78;10325461;28;20050;-62
2023/04/30 13:55:00;;;;;;;0.30;0.10;;;;;;;27.05;26.62;100599.28;10318130;28;20084;-60
2023/04/30 14:00:03;;;;;;;0.38;0.15;;;;;;;27.45;26.16;100592.81;10336442;28;20073;-62
2023/04/30 14:05:05;;;;;;;0.10;0.10;;;;;;;27.92;25.37;100589.81;10327344;28;20046;-63
2023/04/30 14:10:07;;;;;;;0.28;0.03;;;;;;;28.31;25.25;100589.00;10332874;28;20128;-62
2023/04/30 14:15:09;;;;;;;0.20;0.10;;;;;;;27.96;25.37;100590.91;10319118;28;20150;-61
2023/04/30 14:20:11;;;;;;;0.70;0.00;;;;;;;27.56;25.80;100587.25;10326506;28;20124;-62
2023/04/30 14:25:12;;;;;;;0.40;0.10;;;;;;;27.46;25.82;100580.66;10325181;28;20038;-61
2023/04/30 14:30:14;;;;;;;1.20;0.10;;;;;;;27.65;25.60;100575.31;10320996;28;20349;-61
2023/04/30 14:35:16;;;;;;;0.17;0.10;;;;;;;28.24;24.85;100576.31;10332076;28;20458;-62
2023/04/30 14:40:17;;;;;;;0.00;0.00;;;;;;;28.03;24.88;100570.13;10325237;28;20108;-61
2023/04/30 14:45:18;;;;;;;1.55;0.00;;;;;;;27.38;25.40;100561.09;10329611;28;20664;-61
2023/04/30 14:50:20;;;;;;;1.25;0.15;;;;;;;27.74;25.31;100547.91;10325521;28;20486;-61
2023/04/30 14:55:21;;;;;;;0.20;0.20;;;;;;;28.41;24.77;100551.00;10331743;28;20078;-61
2023/04/30 15:00:22;;;;;;;1.13;0.20;;;;;;;28.50;24.69;100537.38;10322548;28;20117;-60
2023/04/30 15:05:25;;;;;;;0.10;0.10;;;;;;;28.31;24.35;100542.81;10331395;28;20050;-61
2023/04/30 15:10:26;;;;;;;2.33;0.30;;;;;;;27.97;24.96;100543.63;10327357;28;20066;-60
2023/04/30 15:15:28;;;;;;;1.38;0.10;;;;;;;27.24;25.53;100538.81;10329340;28;20065;-60
2023/04/30 15:20:30;;;;;;;0.73;0.10;;;;;;;26.68;26.28;100537.03;10321411;28;20133;-61
2023/04/30 15:25:31;;;;;;;0.68;0.10;;;;;;;25.96;27.12;100534.28;10323838;28;20066;-60
2023/04/30 15:30:33;;;;;;;0.17;0.00;;;;;;;25.78;27.12;100529.28;10325998;28;20062;-61
2023/04/30 15:35:34;;;;;;;2.75;0.20;;;;;;;25.47;27.28;100524.50;10332620;28;20076;-60
2023/04/30 15:40:36;;;;;;;0.75;0.20;;;;;;;25.20;28.37;100527.44;10327330;28;20089;-60
2023/04/30 15:45:37;;;;;;;0.55;0.10;;;;;;;24.98;28.46;100524.03;10303603;28;20069;-60
2023/04/30 15:50:39;;;;;;;0.90;0.28;;;;;;;24.73;29.08;100518.13;10318184;28;20077;-62
2023/04/30 15:55:40;;;;;;;0.10;0.10;;;;;;;24.34;29.19;100518.38;10318041;28;20675;-60
2023/04/30 16:00:43;;;;;;;1.50;0.20;;;;;;;24.48;29.40;100501.44;10323335;28;20116;-60
2023/04/30 16:05:44;;;;;;;0.55;0.00;;;;;;;24.97;28.97;100511.38;10306123;28;20081;-61
2023/04/30 16:10:45;;;;;;;0.50;0.08;;;;;;;25.63;28.28;100510.78;10320907;28;20477;-62
2023/04/30 16:15:47;;;;;;;0.57;0.20;;;;;;;26.42;28.01;100501.22;10319868;28;20625;-61
2023/04/30 16:20:48;;;;;;;0.50;0.10;;;;;;;26.88;27.63;100492.81;10328762;28;20137;-61
2023/04/30 16:25:50;;;;;;;0.10;0.03;;;;;;;27.26;27.12;100484.94;10320473;28;20074;-64
2023/04/30 16:30:51;;;;;;;1.75;0.20;;;;;;;27.58;26.76;100502.16;10329900;28;20142;-62
2023/04/30 16:35:53;;;;;;;1.27;0.15;;;;;;;27.88;26.67;100490.94;10325026;28;20180;-64
2023/04/30 16:40:55;;;;;;;0.10;0.10;;;;;;;28.10;25.71;100495.16;10333350;28;20121;-64
2023/04/30 16:45:57;;;;;;;1.95;0.15;;;;;;;27.75;25.81;100491.56;10333526;28;20049;-63
2023/04/30 16:50:58;;;;;;;0.20;0.13;;;;;;;27.90;25.94;100476.81;10333858;28;20665;-63
2023/04/30 16:55:59;;;;;;;0.15;0.15;;;;;;;28.31;25.78;100472.88;10330894;28;20129;-64
2023/04/30 17:01:01;;;;;;;1.15;0.47;;;;;;;28.50;25.16;100476.53;10330709;28;20050;-64
2023/04/30 17:06:04;;;;;;;0.20;0.17;;;;;;;28.75;26.01;100463.56;10324323;28;20046;-64
2023/04/30 17:11:05;;;;;;;0.40;0.15;;;;;;;28.64;25.81;100458.16;10318286;28;20088;-64
2023/04/30 17:16:06;;;;;;;0.22;0.20;;;;;;;28.46;25.37;100467.19;10315467;28;20074;-64
2023/04/30 17:21:08;;;;;;;2.38;0.10;;;;;;;28.11;25.22;100473.88;10305960;28;20098;-63
2023/04/30 17:26:09;;;;;;;3.20;0.20;;;;;;;27.73;25.64;100462.56;10307491;28;20046;-62
2023/04/30 17:31:12;;;;;;;0.73;0.10;;;;;;;27.35;25.87;100467.78;10315146;28;20038;-63
2023/04/30 17:36:14;;;;;;;2.40;0.20;;;;;;;26.81;26.37;100461.13;10320985;28;20038;-62
2023/04/30 17:41:17;;;;;;;0.28;0.20;;;;;;;26.52;26.36;100448.78;10310663;28;20137;-62
2023/04/30 17:46:18;;;;;;;1.33;0.10;;;;;;;25.99;27.35;100458.50;10328482;28;20121;-63
2023/04/30 17:51:20;;;;;;;1.65;0.20;;;;;;;25.27;28.47;100459.22;10313381;28;20057;-62
2023/04/30 17:56:23;;;;;;;0.77;0.20;;;;;;;24.67;28.91;100455.97;10320136;28;20074;-62
2023/04/30 18:01:25;;;;;;;0.22;0.10;;;;;;;24.09;30.07;100457.75;10310668;28;20058;-62
2023/04/30 18:06:27;;;;;;;0.20;0.20;;;;;;;23.61;30.75;100456.78;10330785;28;20031;-61
2023/04/30 18:11:28;;;;;;;3.40;0.30;;;;;;;23.08;31.60;100454.59;10346901;28;20042;-59
2023/04/30 18:16:32;;;;;;;0.30;0.20;;;;;;;22.54;32.49;100460.75;10331195;28;20047;-60
2023/04/30 18:21:33;;;;;;;1.70;0.80;;;;;;;22.13;32.71;100460.09;10360937;28;20058;-60
2023/04/30 18:26:36;;;;;;;1.33;0.90;;;;;;;21.83;33.20;100465.09;10312937;28;20046;-57
2023/04/30 18:31:37;;;;;;;1.60;1.13;;;;;;;21.53;34.05;100460.75;10327094;28;20046;-57
2023/04/30 18:36:41;;;;;;;0.40;0.38;;;;;;;21.22;34.27;100460.13;10322534;28;20049;-59
2023/04/30 18:41:43;;;;;;;1.35;0.50;;;;;;;20.88;34.91;100457.28;10317528;28;20123;-57
2023/04/30 18:46:44;;;;;;;1.95;0.95;;;;;;;20.64;35.64;100458.41;10331768;28;20049;-58
2023/04/30 18:51:46;;;;;;;1.50;0.70;;;;;;;20.34;35.96;100459.34;10330460;28;20442;-57
2023/04/30 18:56:47;;;;;;;1.27;0.80;;;;;;;20.01;36.62;100466.22;10325259;28;20165;-58
2023/04/30 19:01:48;;;;;;;1.25;0.95;;;;;;;19.74;37.07;100466.63;10326524;28;20058;-58
2023/04/30 19:06:51;;;;;;;0.93;0.47;;;;;;;19.55;37.58;100465.00;10315902;28;20452;-58
2023/04/30 19:11:53;;;;;;;0.63;0.40;;;;;;;19.25;38.05;100474.03;10313753;28;20045;-58
2023/04/30 19:16:54;;;;;;;9.45;4.35;;;;;;;19.07;38.47;100479.53;10331591;28;20108;-59
2023/04/30 19:21:56;;;;;;;10.60;5.43;;;;;;;18.86;38.83;100475.38;10336735;28;20049;-59
2023/04/30 19:26:57;;;;;;;3.28;0.70;;;;;;;18.59;39.61;100481.09;10327530;28;20042;-57
2023/04/30 19:31:58;;;;;;;0.93;0.70;;;;;;;18.41;40.31;100490.06;10331024;28;20101;-57
2023/04/30 19:37:00;;;;;;;2.17;0.60;;;;;;;18.15;40.89;100489.25;10331096;28;20064;-59
2023/04/30 19:42:02;;;;;;;0.52;0.50;;;;;;;17.94;41.67;100495.91;10324392;28;20046;-58
2023/04/30 19:47:03;;;;;;;1.20;0.60;;;;;;;17.76;41.88;100491.19;10322496;28;20054;-56
2023/04/30 19:52:06;;;;;;;5.20;3.50;;;;;;;17.60;42.22;100498.00;10328278;28;20552;-58
2023/04/30 19:57:08;;;;;;;6.40;3.33;;;;;;;17.43;42.98;100494.13;10313648;28;20100;-58
2023/04/30 20:02:09;;;;;;;1.88;1.40;;;;;;;17.32;43.15;100497.50;10321134;28;20061;-58
2023/04/30 20:07:11;;;;;;;1.73;0.82;;;;;;;17.15;43.28;100499.91;10332600;28;20042;-60
2023/04/30 20:12:13;;;;;;;2.13;0.70;;;;;;;17.04;43.92;100499.53;10328651;28;20590;-58
2023/04/30 20:17:14;;;;;;;1.35;0.73;;;;;;;16.85;44.11;100497.72;10333176;28;20047;-58
2023/04/30 20:22:16;;;;;;;1.42;0.80;;;;;;;16.72;44.29;100503.16;10336329;28;20431;-58
2023/04/30 20:27:17;;;;;;;1.40;0.90;;;;;;;16.64;44.33;100501.50;10325367;28;20061;-58
2023/04/30 20:32:19;;;;;;;1.48;0.80;;;;;;;16.50;44.61;100494.44;10313547;28;20076;-60
2023/04/30 20:37:20;;;;;;;2.13;1.42;;;;;;;16.41;45.07;100502.81;10340973;28;20042;-60
2023/04/30 20:42:22;;;;;;;1.77;1.02;;;;;;;16.33;45.00;100503.03;10330914;28;20062;-61
2023/04/30 20:47:23;;;;;;;2.67;1.00;;;;;;;16.19;45.30;100498.63;10334830;28;20706;-60
2023/04/30 20:52:25;;;;;;;1.98;1.13;;;;;;;16.10;45.27;100500.72;10324860;28;20046;-60
2023/04/30 20:57:26;;;;;;;2.20;0.85;;;;;;;16.03;45.69;100499.88;10337570;28;20045;-60
2023/04/30 21:02:28;;;;;;;1.10;1.00;;;;;;;15.95;45.84;100498.22;10321936;28;20092;-60
2023/04/30 21:07:33;;;;;;;2.88;1.27;;;;;;;15.87;46.03;100503.84;10339809;28;20533;-60
2023/04/30 21:12:34;;;;;;;2.33;1.10;;;;;;;15.81;46.04;100501.97;10330622;28;20043;-60
2023/04/30 21:17:36;;;;;;;2.78;1.30;;;;;;;15.71;46.36;100512.34;10329467;28;20571;-60
2023/04/30 21:22:38;;;;;;;5.03;1.90;;;;;;;15.58;46.58;100519.41;10331547;28;20112;-60
2023/04/30 21:27:39;;;;;;;2.42;1.58;;;;;;;15.53;46.69;100518.34;10325291;28;20137;-60
2023/04/30 21:32:45;;;;;;;4.22;2.35;;;;;;;15.33;47.12;100511.00;10335133;28;20051;-60
2023/04/30 21:37:47;;;;;;;4.88;2.80;;;;;;;15.33;47.04;100502.88;10322841;28;20038;-60
2023/04/30 21:42:49;;;;;;;3.50;2.33;;;;;;;15.33;47.28;100510.16;10354062;28;20050;-60
2023/04/30 21:47:50;;;;;;;4.03;2.28;;;;;;;15.37;47.14;100504.13;10361356;28;20053;-60
2023/04/30 21:52:52;;;;;;;5.10;2.65;;;;;;;15.39;47.17;100503.94;10352550;28;20046;-60
2023/04/30 21:57:53;;;;;;;7.20;2.75;;;;;;;15.36;47.23;100497.03;10341521;28;20050;-60
2023/04/30 22:02:55;;;;;;;6.13;2.08;;;;;;;15.33;47.45;100504.75;10338332;28;20085;-60
2023/04/30 22:07:56;;;;;;;4.90;2.15;;;;;;;15.34;47.59;100499.09;10337097;28;20107;-60
2023/04/30 22:12:57;;;;;;;4.65;1.65;;;;;;;15.34;47.29;100496.41;10340073;28;20131;-60
2023/04/30 22:17:59;;;;;;;6.75;1.70;;;;;;;15.30;47.62;100500.56;10344262;28;20042;-61
2023/04/30 22:23:00;;;;;;;3.30;1.45;;;;;;;15.23;47.76;100497.84;10339208;28;20516;-60
2023/04/30 22:28:02;;;;;;;2.85;1.23;;;;;;;15.28;47.69;100497.22;10338560;28;20042;-60
2023/04/30 22:33:03;;;;;;;3.63;1.45;;;;;;;15.25;48.00;100500.34;10341799;28;20053;-60
2023/04/30 22:38:05;;;;;;;4.03;1.30;;;;;;;15.20;48.09;100497.41;10334866;28;20078;-60
2023/04/30 22:43:08;;;;;;;5.93;1.80;;;;;;;15.18;48.42;100491.34;10353166;28;20046;-60
2023/04/30 22:48:09;;;;;;;3.67;1.33;;;;;;;15.25;48.20;100493.03;10341035;28;20113;-60
2023/04/30 22:53:12;;;;;;;3.28;1.10;;;;;;;15.29;48.27;100488.06;10343083;28;20106;-60
2023/04/30 22:58:13;;;;;;;3.25;1.30;;;;;;;15.31;48.41;100494.13;10352807;28;20043;-60